Time;durP1;ratioP1;P1;durP2;ratioP2;P2;SDS_P1;SDS_P2;PMS_P1;PMS_P2;Temp;Humidity;BMP_temperature;BMP_pressure;BME280_temperature;BME280_humidity;BME280_pressure;Samples;Min_cycle;Max_cycle;Signal;HPM_P1;HPM_P2
2022/04/04 07:59:11;;;;;;;13.15;10.27;;;;;;;4.90;71.55;101018.66;5300697;27;1217148;-74
2022/04/04 08:01:42;;;;;;;13.77;10.73;;;;;;;4.95;71.54;101005.81;5322640;28;20111;-75
2022/04/04 08:04:13;;;;;;;12.02;10.00;;;;;;;5.00;71.54;101003.16;5329305;28;20024;-75
2022/04/04 08:06:45;;;;;;;13.30;9.93;;;;;;;5.06;70.95;100998.56;5331318;28;20031;-75
2022/04/04 08:09:16;;;;;;;14.73;9.50;;;;;;;5.16;71.20;100993.25;5334052;28;20102;-74
2022/04/04 08:11:48;;;;;;;10.57;9.50;;;;;;;5.27;71.09;100990.69;5334447;27;20489;-75
2022/04/04 08:14:21;;;;;;;14.10;10.43;;;;;;;5.35;70.63;100971.00;5322822;28;20020;-75
2022/04/04 08:16:52;;;;;;;11.45;9.43;;;;;;;5.44;70.25;100983.22;5336068;27;20106;-75
2022/04/04 08:19:25;;;;;;;13.80;9.27;;;;;;;5.52;69.16;100977.31;5338634;28;20438;-74
2022/04/04 08:21:56;;;;;;;12.13;9.63;;;;;;;5.63;68.83;100965.38;5331280;28;20395;-75
2022/04/04 08:24:28;;;;;;;10.90;9.23;;;;;;;5.69;68.68;100965.44;5328361;28;20028;-75
2022/04/04 08:26:59;;;;;;;15.65;9.00;;;;;;;5.73;68.81;100964.69;5340935;28;20123;-74
2022/04/04 08:29:30;;;;;;;13.10;8.63;;;;;;;5.79;67.80;100968.34;5337209;27;20012;-75
2022/04/04 08:32:02;;;;;;;17.70;8.40;;;;;;;5.87;67.26;100962.38;5321756;28;20103;-75
2022/04/04 08:34:34;;;;;;;20.90;11.38;;;;;;;5.91;67.02;100949.78;5332433;28;20032;-75
2022/04/04 08:37:05;;;;;;;12.65;9.18;;;;;;;5.95;66.34;100942.69;5322204;28;20024;-75
2022/04/04 08:39:36;;;;;;;10.43;7.95;;;;;;;6.04;66.09;100930.16;5321207;28;20024;-76
2022/04/04 08:42:08;;;;;;;13.00;8.25;;;;;;;6.08;65.82;100925.78;5337517;28;20072;-75
2022/04/04 08:44:39;;;;;;;15.98;7.90;;;;;;;6.13;65.29;100932.44;5341562;27;20038;-75
2022/04/04 08:47:11;;;;;;;17.45;8.45;;;;;;;6.20;65.06;100922.06;5321087;28;20028;-75
2022/04/04 08:49:42;;;;;;;19.20;8.43;;;;;;;6.24;65.35;100939.75;5328255;28;20444;-74
2022/04/04 08:52:15;;;;;;;19.90;9.05;;;;;;;6.28;65.35;100918.84;5327377;28;20108;-75
2022/04/04 08:54:47;;;;;;;13.80;8.68;;;;;;;6.31;65.26;100919.16;5326163;28;20030;-75
2022/04/04 08:57:19;;;;;;;23.45;9.55;;;;;;;6.39;65.02;100906.00;5321510;27;20075;-75
2022/04/04 08:59:50;;;;;;;17.23;8.95;;;;;;;6.40;64.47;100905.75;5321485;28;20100;-74
2022/04/04 09:02:21;;;;;;;21.92;9.65;;;;;;;6.38;64.88;100893.31;5327945;27;20591;-74
2022/04/04 09:04:53;;;;;;;21.77;9.65;;;;;;;6.36;65.17;100910.09;5325159;28;20035;-75
2022/04/04 09:07:24;;;;;;;39.53;11.82;;;;;;;6.33;66.12;100899.59;5331490;28;20016;-75
2022/04/04 09:09:56;;;;;;;23.23;10.18;;;;;;;6.27;66.12;100895.97;5315324;28;20035;-76
2022/04/04 09:12:28;;;;;;;16.48;9.77;;;;;;;6.24;66.77;100907.50;5328590;28;20103;-76
2022/04/04 09:14:59;;;;;;;27.95;10.32;;;;;;;6.22;66.93;100895.09;5310621;28;20494;-76
2022/04/04 09:17:33;;;;;;;26.75;11.32;;;;;;;6.22;67.15;100893.16;5306886;28;20024;-75
2022/04/04 09:20:09;;;;;;;31.08;11.68;;;;;;;6.20;67.38;100876.06;5307011;28;20485;-73
2022/04/04 09:22:52;;;;;;;17.92;8.88;;;;;;;6.20;67.92;100883.50;5306317;28;20494;-75
2022/04/04 09:25:33;;;;;;;21.10;9.90;;;;;;;6.20;68.33;100867.81;5313869;28;20043;-75
2022/04/04 09:28:19;;;;;;;21.23;9.40;;;;;;;6.19;68.31;100876.34;5327569;28;20072;-75
2022/04/04 09:31:08;;;;;;;23.05;9.70;;;;;;;6.21;68.93;100861.22;5315526;28;20024;-75
2022/04/04 09:33:40;;;;;;;21.98;10.07;;;;;;;6.19;69.65;100865.31;5327730;28;20027;-76
2022/04/04 09:36:12;;;;;;;19.45;8.60;;;;;;;6.17;70.12;100867.50;5317268;28;20115;-75
2022/04/04 09:38:54;;;;;;;22.55;9.85;;;;;;;6.18;70.74;100861.72;5306489;28;20543;-76
2022/04/04 09:41:27;;;;;;;18.75;9.32;;;;;;;6.09;71.40;100849.53;5306648;28;20115;-76
2022/04/04 09:44:02;;;;;;;17.73;9.23;;;;;;;6.09;73.02;100864.13;5305498;28;20035;-74
2022/04/04 09:46:38;;;;;;;13.20;8.82;;;;;;;6.10;73.56;100857.50;5306961;28;20035;-78
2022/04/04 09:49:20;;;;;;;15.40;9.07;;;;;;;6.15;74.45;100866.94;5306619;28;20468;-77
2022/04/04 09:51:53;;;;;;;13.50;9.70;;;;;;;6.06;74.23;100848.13;5306095;28;20020;-77
2022/04/04 09:54:30;;;;;;;12.52;9.50;;;;;;;6.00;74.20;100843.63;5307164;28;20031;-77
2022/04/04 09:57:13;;;;;;;12.05;8.90;;;;;;;5.98;75.28;100832.06;5305746;28;20039;-77
2022/04/04 09:59:45;;;;;;;12.25;9.10;;;;;;;5.99;75.49;100853.00;5322168;28;20042;-77
2022/04/04 10:02:16;;;;;;;13.63;9.23;;;;;;;5.97;75.17;100833.16;5315956;28;20020;-75
2022/04/04 10:04:49;;;;;;;14.13;9.80;;;;;;;5.88;75.88;100834.69;5305440;28;20039;-76
2022/04/04 10:07:20;;;;;;;10.73;9.63;;;;;;;5.91;76.54;100820.41;5306000;28;20066;-77
2022/04/04 10:09:52;;;;;;;12.93;9.68;;;;;;;5.93;76.59;100840.25;5306259;28;20383;-73
2022/04/04 10:12:24;;;;;;;13.00;10.20;;;;;;;5.92;76.95;100830.31;5305151;28;20020;-77
2022/04/04 10:14:56;;;;;;;14.38;9.98;;;;;;;5.89;77.61;100823.41;5307200;28;20020;-76
2022/04/04 10:17:29;;;;;;;12.73;10.63;;;;;;;5.89;78.24;100823.41;5319297;28;20033;-78
2022/04/04 10:20:01;;;;;;;16.80;10.77;;;;;;;5.88;79.48;100813.50;5305524;28;20032;-77
2022/04/04 10:22:33;;;;;;;12.43;10.52;;;;;;;5.90;79.42;100807.72;5305650;28;20020;-76
2022/04/04 10:25:07;;;;;;;12.43;11.13;;;;;;;5.87;80.43;100824.75;5304824;28;20024;-78
2022/04/04 10:27:39;;;;;;;13.18;10.70;;;;;;;5.83;80.74;100815.38;5326065;28;20023;-77
2022/04/04 10:30:13;;;;;;;15.35;11.02;;;;;;;5.79;81.46;100826.03;5318799;28;20035;-75
2022/04/04 10:32:53;;;;;;;12.35;10.95;;;;;;;5.79;82.73;100817.78;5312484;28;20423;-73
2022/04/04 10:35:27;;;;;;;14.40;11.30;;;;;;;5.75;83.20;100826.81;5305467;28;20039;-73
2022/04/04 10:38:03;;;;;;;13.18;11.15;;;;;;;5.71;84.05;100818.25;5305410;28;20040;-73
2022/04/04 10:40:36;;;;;;;13.88;12.05;;;;;;;5.65;85.11;100811.88;5321942;28;20019;-73
2022/04/04 10:43:13;;;;;;;17.02;12.55;;;;;;;5.66;85.47;100809.94;5304917;28;20059;-72
2022/04/04 10:45:59;;;;;;;16.80;12.10;;;;;;;5.67;86.33;100814.34;5304983;28;20528;-71
2022/04/04 10:48:35;;;;;;;13.93;12.17;;;;;;;5.65;86.21;100817.38;5308986;28;20052;-73
2022/04/04 10:51:17;;;;;;;17.02;11.82;;;;;;;5.53;86.95;100805.66;5316880;28;20038;-73
2022/04/04 10:53:57;;;;;;;14.43;10.38;;;;;;;5.58;87.13;100800.22;5325674;28;20047;-73
2022/04/04 10:56:33;;;;;;;14.05;11.45;;;;;;;5.60;87.97;100795.31;5326066;28;20031;-72
2022/04/04 10:59:19;;;;;;;11.23;10.20;;;;;;;5.69;87.72;100805.84;5326012;28;20112;-72
2022/04/04 11:01:56;;;;;;;12.35;11.05;;;;;;;5.70;88.15;100802.84;5313775;28;20053;-71
2022/04/04 11:04:34;;;;;;;12.20;10.88;;;;;;;5.73;88.80;100784.97;5325720;28;20024;-72
2022/04/04 11:10:06;;;;;;;11.82;9.98;;;;;;;5.71;88.48;100776.97;5307075;28;20129;-71
2022/04/04 11:13:21;;;;;;;12.35;10.52;;;;;;;5.69;89.55;100786.56;5306037;28;20077;-71
2022/04/04 11:16:20;;;;;;;;;;;;;;;;;;;;;
2022/04/04 11:18:53;;;;;;;13.40;12.02;;;;;;;5.63;90.16;100767.25;5312888;28;20039;-75
2022/04/04 11:21:41;;;;;;;12.20;10.95;;;;;;;5.66;89.85;100769.50;5324986;28;20084;-75
2022/04/04 11:24:15;;;;;;;13.65;12.13;;;;;;;5.61;90.19;100766.69;5314019;28;20034;-74
2022/04/04 11:26:47;;;;;;;10.55;9.55;;;;;;;5.61;89.38;100760.34;5304275;28;20108;-75
2022/04/04 11:29:23;;;;;;;11.35;10.25;;;;;;;5.58;89.29;100766.38;5323727;28;20433;-75
2022/04/04 11:32:19;;;;;;;12.27;10.93;;;;;;;5.57;89.79;100764.69;5325404;28;20055;-74
2022/04/04 11:35:10;;;;;;;34.27;30.60;;;;;;;5.60;90.30;100765.03;5322510;28;20390;-76
2022/04/04 11:37:44;;;;;;;14.48;12.13;;;;;;;5.60;89.88;100770.53;5298048;28;20498;-80
2022/04/04 11:40:39;;;;;;;13.60;11.65;;;;;;;5.52;89.88;100760.00;5318092;28;20383;-78
2022/04/04 11:43:13;;;;;;;12.52;11.27;;;;;;;5.45;90.30;100756.63;5303861;28;20036;-78
2022/04/04 11:45:46;;;;;;;13.57;11.93;;;;;;;5.48;89.18;100742.34;5305602;28;20497;-77
2022/04/04 11:48:39;;;;;;;;;;;;;;;;;;;;;
2022/04/04 11:51:11;;;;;;;11.38;10.27;;;;;;;5.44;88.84;100738.44;5307280;28;20028;-75
2022/04/04 11:54:04;;;;;;;11.75;10.43;;;;;;;5.53;89.21;100749.81;5316538;28;20420;-75
2022/04/04 11:56:35;;;;;;;10.82;9.80;;;;;;;5.38;89.97;100744.97;5318505;28;20031;-75
2022/04/04 11:59:35;;;;;;;;;;;;;;;;;;;;;
2022/04/04 12:02:23;;;;;;;;;;;;;;;;;;;;;
2022/04/04 12:04:56;;;;;;;11.52;10.30;;;;;;;5.38;89.34;100722.97;5300556;28;20032;-74
2022/04/04 12:07:31;;;;;;;12.23;11.07;;;;;;;5.42;89.79;100726.88;5304087;28;20035;-74
2022/04/04 12:10:02;;;;;;;13.00;11.80;;;;;;;5.35;90.14;100718.81;5303069;28;20070;-74
2022/04/04 12:12:34;;;;;;;12.77;10.85;;;;;;;5.34;90.61;100716.31;5304112;28;20388;-74
2022/04/04 12:15:06;;;;;;;12.20;11.00;;;;;;;5.38;90.86;100706.47;5310831;28;20027;-73
2022/04/04 12:17:37;;;;;;;43.35;37.20;;;;;;;5.38;90.87;100709.22;5306229;28;20108;-73
2022/04/04 12:20:11;;;;;;;13.07;10.38;;;;;;;5.40;91.24;100701.53;5303814;28;20077;-73
2022/04/04 12:25:32;;;;;;;12.68;11.48;;;;;;;5.49;92.02;100713.72;5312131;28;20468;-75
2022/04/04 12:28:04;;;;;;;11.88;10.77;;;;;;;5.50;92.48;100701.66;5303945;28;20024;-73
2022/04/04 12:30:37;;;;;;;12.15;10.93;;;;;;;5.49;92.92;100702.72;5303760;28;20020;-74
2022/04/04 12:33:11;;;;;;;13.02;11.68;;;;;;;5.50;93.38;100696.16;5322869;28;20152;-74
2022/04/04 12:35:45;;;;;;;13.38;11.98;;;;;;;5.55;93.15;100685.19;5324191;28;20467;-75
2022/04/04 12:38:29;;;;;;;13.38;12.10;;;;;;;5.53;93.67;100686.56;5324171;28;20032;-74
2022/04/04 12:41:15;;;;;;;11.63;10.48;;;;;;;5.57;94.18;100687.66;5319053;28;20052;-75
2022/04/04 12:43:58;;;;;;;12.20;11.00;;;;;;;5.55;94.11;100693.44;5302909;28;20119;-76
2022/04/04 12:46:31;;;;;;;14.35;13.00;;;;;;;5.58;94.50;100681.09;5319597;28;20528;-73
2022/04/04 12:49:20;;;;;;;13.13;11.63;;;;;;;5.56;95.64;100683.28;5308278;28;20020;-74
2022/04/04 12:51:55;;;;;;;11.98;10.73;;;;;;;5.55;95.61;100674.19;5307995;28;20100;-75
2022/04/04 12:54:31;;;;;;;13.32;11.93;;;;;;;5.58;95.43;100673.66;5306730;28;20024;-75
2022/04/04 12:57:04;;;;;;;12.00;10.82;;;;;;;5.60;95.45;100660.50;5308021;28;20028;-74
2022/04/04 12:59:50;;;;;;;13.05;11.70;;;;;;;5.60;96.07;100668.75;5307453;28;20534;-74
2022/04/04 13:02:29;;;;;;;13.25;11.95;;;;;;;5.64;96.29;100656.09;5307134;28;20013;-74
2022/04/04 13:05:13;;;;;;;11.52;10.43;;;;;;;5.65;95.92;100660.53;5318765;28;20038;-73
2022/04/04 13:07:49;;;;;;;69.28;55.20;;;;;;;5.63;96.17;100654.47;5306578;28;20020;-71
2022/04/04 13:10:24;;;;;;;17.45;15.27;;;;;;;5.70;96.98;100664.41;5307420;28;20077;-71
2022/04/04 13:13:09;;;;;;;12.73;11.52;;;;;;;5.71;97.23;100655.06;5306960;28;20019;-71
2022/04/04 13:15:42;;;;;;;31.90;26.87;;;;;;;5.68;96.86;100650.09;5306575;28;20024;-71
2022/04/04 13:18:13;;;;;;;11.38;10.00;;;;;;;5.72;96.94;100653.97;5306906;28;20306;-70
2022/04/04 13:20:44;;;;;;;11.15;9.93;;;;;;;5.64;97.53;100641.53;5306266;28;20488;-69
2022/04/04 13:23:16;;;;;;;12.32;11.23;;;;;;;5.62;97.76;100647.31;5307438;28;20047;-70
2022/04/04 13:25:50;;;;;;;11.13;10.13;;;;;;;5.67;97.43;100649.25;5328477;28;20024;-70
2022/04/04 13:28:22;;;;;;;11.65;10.48;;;;;;;5.72;97.86;100651.22;5327228;28;20031;-69
2022/04/04 13:30:56;;;;;;;10.48;9.48;;;;;;;5.68;97.13;100655.59;5314280;28;20494;-70
2022/04/04 13:33:27;;;;;;;11.93;10.82;;;;;;;5.66;98.11;100650.34;5316779;28;20386;-69
2022/04/04 13:36:01;;;;;;;11.43;10.40;;;;;;;5.64;98.49;100645.09;5327102;28;20046;-72
2022/04/04 13:38:32;;;;;;;11.23;10.23;;;;;;;5.69;98.47;100643.50;5327311;28;20027;-69
2022/04/04 13:41:04;;;;;;;11.15;10.18;;;;;;;5.65;98.32;100640.44;5315259;28;20028;-69
2022/04/04 13:43:36;;;;;;;13.73;9.93;;;;;;;5.68;98.74;100633.59;5305945;28;20062;-71
2022/04/04 13:46:08;;;;;;;11.55;10.40;;;;;;;5.65;99.06;100632.19;5309738;28;20093;-72
2022/04/04 13:48:40;;;;;;;12.18;11.05;;;;;;;5.68;99.42;100633.59;5305691;28;20020;-77
2022/04/04 13:51:12;;;;;;;11.90;10.80;;;;;;;5.66;99.62;100631.91;5306158;28;20095;-74
2022/04/04 13:53:43;;;;;;;14.10;12.73;;;;;;;5.68;99.37;100633.59;5306208;28;20028;-77
2022/04/04 13:56:18;;;;;;;13.80;12.48;;;;;;;5.76;99.54;100627.59;5309227;28;20081;-72
2022/04/04 13:58:51;;;;;;;10.95;9.80;;;;;;;5.76;99.29;100619.34;5313891;28;20051;-74
2022/04/04 14:01:24;;;;;;;9.90;9.02;;;;;;;5.77;99.39;100616.31;5305788;28;20055;-73
2022/04/04 14:03:59;;;;;;;10.75;9.75;;;;;;;5.74;99.10;100603.09;5305335;28;20054;-74
2022/04/04 14:06:30;;;;;;;11.70;9.45;;;;;;;5.71;99.33;100611.06;5305417;28;20032;-73
2022/04/04 14:09:02;;;;;;;10.60;9.63;;;;;;;5.72;100.00;100596.19;5306514;28;20425;-78
2022/04/04 14:11:35;;;;;;;9.93;9.02;;;;;;;5.76;100.00;100602.84;5306412;28;20020;-77
2022/04/04 14:14:07;;;;;;;10.45;9.35;;;;;;;5.78;100.00;100603.41;5323071;28;20505;-77
2022/04/04 14:16:39;;;;;;;27.90;22.25;;;;;;;5.84;99.89;100607.84;5328239;28;20028;-73
2022/04/04 14:19:10;;;;;;;11.13;10.13;;;;;;;5.86;100.00;100602.91;5327014;28;20028;-70
2022/04/04 14:21:42;;;;;;;10.75;9.75;;;;;;;5.85;100.00;100598.47;5314866;28;20024;-73
2022/04/04 14:24:13;;;;;;;10.35;9.35;;;;;;;5.90;100.00;100593.00;5310979;28;20023;-72
2022/04/04 14:26:45;;;;;;;10.20;9.18;;;;;;;5.94;100.00;100593.38;5326507;28;20020;-72
2022/04/04 14:29:16;;;;;;;10.63;9.65;;;;;;;5.89;100.00;100600.44;5326926;28;20031;-75
2022/04/04 14:31:47;;;;;;;9.73;8.80;;;;;;;5.91;100.00;100602.13;5308720;28;20376;-75
2022/04/04 14:34:19;;;;;;;9.32;8.43;;;;;;;5.92;100.00;100587.25;5315934;28;20035;-74
2022/04/04 14:36:51;;;;;;;9.88;8.98;;;;;;;5.94;100.00;100596.13;5310896;28;20032;-71
2022/04/04 14:39:22;;;;;;;8.98;8.07;;;;;;;5.94;100.00;100585.09;5307647;28;20042;-72
2022/04/04 14:41:54;;;;;;;9.15;8.25;;;;;;;5.94;100.00;100587.84;5313713;28;20027;-72
2022/04/04 14:44:25;;;;;;;9.02;8.30;;;;;;;5.98;100.00;100592.56;5312592;28;20035;-73
2022/04/04 14:46:57;;;;;;;8.85;7.97;;;;;;;5.97;100.00;100579.06;5304550;28;20055;-71
2022/04/04 14:49:29;;;;;;;8.23;7.53;;;;;;;5.97;100.00;100587.31;5308431;28;20035;-70
2022/04/04 14:52:00;;;;;;;8.40;7.60;;;;;;;5.97;100.00;100574.38;5321172;28;20032;-71
2022/04/04 14:54:32;;;;;;;8.38;7.68;;;;;;;5.95;100.00;100582.06;5322219;28;20028;-71
2022/04/04 14:57:04;;;;;;;8.27;7.57;;;;;;;5.97;100.00;100582.63;5311888;28;20052;-72
2022/04/04 14:59:35;;;;;;;8.52;7.47;;;;;;;5.98;100.00;100584.31;5323633;28;20116;-71
2022/04/04 15:02:07;;;;;;;8.95;8.15;;;;;;;6.00;100.00;100584.03;5316707;28;20020;-71
2022/04/04 15:04:38;;;;;;;10.40;9.35;;;;;;;6.08;100.00;100576.13;5308885;28;20024;-72
2022/04/04 15:07:12;;;;;;;12.25;9.82;;;;;;;6.04;100.00;100566.72;5303530;28;20024;-72
2022/04/04 15:09:43;;;;;;;11.48;10.27;;;;;;;6.06;100.00;100569.22;5304495;28;20036;-72
2022/04/04 15:12:14;;;;;;;13.88;10.85;;;;;;;6.09;100.00;100563.19;5304790;28;20034;-72
2022/04/04 15:14:47;;;;;;;8.07;7.38;;;;;;;6.09;100.00;100564.00;5303806;28;20463;-71
2022/04/04 15:17:18;;;;;;;7.88;7.25;;;;;;;6.08;100.00;100556.84;5304306;28;20500;-70
2022/04/04 15:19:50;;;;;;;10.02;9.02;;;;;;;6.04;100.00;100550.19;5304578;28;20098;-72
2022/04/04 15:22:23;;;;;;;9.55;8.55;;;;;;;6.08;100.00;100547.72;5313303;28;20458;-72
2022/04/04 15:24:54;;;;;;;10.23;9.15;;;;;;;6.08;100.00;100545.84;5308147;28;20032;-72
2022/04/04 15:27:27;;;;;;;26.30;23.50;;;;;;;6.08;100.00;100545.84;5306394;28;20471;-70
2022/04/04 15:29:58;;;;;;;13.35;10.93;;;;;;;6.13;100.00;100545.00;5315267;28;20032;-71
2022/04/04 15:33:07;;;;;;;10.27;9.38;;;;;;;6.14;100.00;100548.63;5184981;28;21089;-69
2022/04/04 15:35:39;;;;;;;8.68;7.88;;;;;;;6.18;100.00;100539.53;5320084;28;20092;-71
2022/04/04 15:38:10;;;;;;;8.07;7.38;;;;;;;6.18;100.00;100533.19;5321914;28;20422;-70
2022/04/04 15:40:41;;;;;;;8.07;7.38;;;;;;;6.19;100.00;100532.13;5308679;28;20059;-70
2022/04/04 15:43:15;;;;;;;8.90;8.10;;;;;;;6.20;100.00;100536.50;5324695;28;20012;-71
2022/04/04 15:45:46;;;;;;;7.63;7.03;;;;;;;6.20;100.00;100536.50;5317572;28;20056;-70
2022/04/04 15:48:19;;;;;;;7.38;6.75;;;;;;;6.21;100.00;100538.16;5304043;28;20024;-71
2022/04/04 15:50:51;;;;;;;9.00;8.18;;;;;;;6.22;100.00;100539.84;5303871;28;20051;-71
2022/04/04 15:53:22;;;;;;;8.35;7.55;;;;;;;6.27;100.00;100526.09;5304095;28;20035;-68
2022/04/04 15:55:54;;;;;;;9.40;8.50;;;;;;;6.27;100.00;100534.34;5305375;28;20500;-71
2022/04/04 15:58:30;;;;;;;8.20;7.45;;;;;;;6.26;100.00;100529.91;5313699;28;20470;-71
2022/04/04 16:01:01;;;;;;;8.25;7.45;;;;;;;6.26;100.00;100522.50;5310675;28;20052;-72
2022/04/04 16:03:33;;;;;;;7.80;7.10;;;;;;;6.28;100.00;100530.50;5302760;28;20489;-73
2022/04/04 16:06:04;;;;;;;7.10;6.50;;;;;;;6.30;100.00;100531.06;5304321;28;20490;-73
2022/04/04 16:08:36;;;;;;;7.28;6.68;;;;;;;6.31;100.00;100524.44;5310484;28;20082;-73
2022/04/04 16:11:18;;;;;;;7.82;7.22;;;;;;;6.31;100.00;100514.28;5310024;28;20032;-74
2022/04/04 16:13:49;;;;;;;7.55;6.85;;;;;;;6.36;100.00;100521.69;5321516;28;20039;-73
2022/04/04 16:16:21;;;;;;;7.97;7.28;;;;;;;6.31;100.00;100517.03;5314899;28;20016;-73
2022/04/04 16:18:52;;;;;;;8.40;7.60;;;;;;;6.36;100.00;100505.19;5316937;28;20039;-74
2022/04/04 16:21:24;;;;;;;8.68;7.28;;;;;;;6.36;100.00;100507.09;5327381;28;20035;-74
2022/04/04 16:23:55;;;;;;;6.10;5.60;;;;;;;6.35;100.00;100499.97;5328286;28;20091;-73
2022/04/04 16:26:27;;;;;;;6.72;6.10;;;;;;;6.35;100.00;100506.28;5327817;28;20026;-74
2022/04/04 16:28:58;;;;;;;7.13;6.53;;;;;;;6.32;100.00;100504.91;5328049;28;20047;-76
2022/04/04 16:31:30;;;;;;;6.50;6.00;;;;;;;6.37;100.00;100512.34;5307219;28;20043;-78
2022/04/04 16:34:01;;;;;;;6.25;5.75;;;;;;;6.33;100.00;100505.72;5308019;28;20016;-75
2022/04/04 16:36:33;;;;;;;6.40;5.90;;;;;;;6.38;100.00;100504.91;5308002;28;20020;-76
2022/04/04 16:39:09;;;;;;;6.30;5.80;;;;;;;6.39;100.00;100507.41;5312561;28;20103;-75
2022/04/04 16:41:40;;;;;;;5.53;5.13;;;;;;;6.40;100.00;100517.31;5317092;28;20103;-75
2022/04/04 16:44:12;;;;;;;6.60;6.10;;;;;;;6.40;100.00;100506.31;5307319;28;20107;-76
2022/04/04 16:46:43;;;;;;;5.70;5.30;;;;;;;6.41;100.00;100510.69;5307440;28;20060;-76
2022/04/04 16:49:15;;;;;;;6.60;5.82;;;;;;;6.44;100.00;100507.44;5307502;28;20114;-76
2022/04/04 16:51:46;;;;;;;6.03;5.53;;;;;;;6.42;100.00;100511.56;5306787;28;20036;-75
2022/04/04 16:54:18;;;;;;;6.50;6.00;;;;;;;6.43;100.00;100505.75;5308204;28;20463;-77
2022/04/04 16:56:49;;;;;;;6.55;6.05;;;;;;;6.42;100.00;100512.38;5329725;28;20039;-78
2022/04/04 16:59:20;;;;;;;6.10;5.60;;;;;;;6.45;100.00;100511.84;5327356;28;20043;-78
2022/04/04 17:01:52;;;;;;;6.22;5.72;;;;;;;6.47;100.00;100506.88;5328342;28;20020;-75
2022/04/04 17:04:23;;;;;;;6.28;5.78;;;;;;;6.47;100.00;100503.31;5324287;28;20054;-76
2022/04/04 17:06:54;;;;;;;6.35;5.80;;;;;;;6.45;100.00;100506.31;5306763;28;20136;-76
2022/04/04 17:09:26;;;;;;;6.68;6.18;;;;;;;6.48;100.00;100504.94;5307442;28;20028;-74
2022/04/04 17:12:04;;;;;;;6.35;5.85;;;;;;;6.48;100.00;100503.03;5316092;28;20051;-75
2022/04/04 17:14:36;;;;;;;6.28;5.78;;;;;;;6.48;100.00;100497.50;5317216;28;20024;-76
2022/04/04 17:17:08;;;;;;;6.68;6.18;;;;;;;6.48;100.00;100504.94;5322379;28;20024;-75
2022/04/04 17:19:39;;;;;;;6.57;6.07;;;;;;;6.50;100.00;100502.75;5327687;28;20046;-74
2022/04/04 17:22:10;;;;;;;6.70;6.20;;;;;;;6.49;100.00;100490.91;5308089;28;20036;-74
2022/04/04 17:24:42;;;;;;;5.88;5.47;;;;;;;6.51;100.00;100493.38;5306953;28;20024;-73
2022/04/04 17:27:15;;;;;;;6.63;6.13;;;;;;;6.51;100.00;100494.22;5306217;28;20028;-75
2022/04/04 17:29:48;;;;;;;7.13;6.38;;;;;;;6.56;100.00;100489.81;5306925;28;20401;-75
